createdAt,value
2023-03-31T00:00:38.920Z,89.70
2023-03-31T00:01:38.899Z,89.50
2023-03-31T00:02:38.956Z,89.50
2023-03-31T00:03:39.266Z,89.70
2023-03-31T00:04:38.875Z,89.90
2023-03-31T00:05:38.877Z,90.21
2023-03-31T00:06:38.836Z,90.31
2023-03-31T00:07:38.832Z,90.31
2023-03-31T00:08:38.784Z,90.82
2023-03-31T00:09:38.782Z,91.33
2023-03-31T00:10:38.776Z,91.33
2023-03-31T00:11:38.772Z,91.33
2023-03-31T00:12:38.740Z,91.54
2023-03-31T00:13:38.736Z,91.48
2023-03-31T00:14:38.706Z,91.38
2023-03-31T00:15:38.702Z,91.48
2023-03-31T00:16:38.796Z,91.58
2023-03-31T00:17:38.715Z,91.69
2023-03-31T00:18:38.667Z,91.69
2023-03-31T00:19:38.650Z,91.48
2023-03-31T00:20:38.724Z,91.58
2023-03-31T00:21:38.645Z,91.74
2023-03-31T00:22:38.630Z,91.85
2023-03-31T00:23:38.603Z,91.74
2023-03-31T00:24:38.584Z,91.74
2023-03-31T00:25:38.577Z,91.74
2023-03-31T00:26:38.578Z,91.95
2023-03-31T00:27:38.559Z,92.05
2023-03-31T00:28:38.529Z,92.05
2023-03-31T00:29:38.523Z,92.05
2023-03-31T00:30:38.508Z,92.10
2023-03-31T00:31:38.533Z,92.10
2023-03-31T00:32:38.589Z,92.19
2023-03-31T00:33:38.465Z,92.40
2023-03-31T00:34:38.455Z,92.71
2023-03-31T00:35:38.480Z,92.91
2023-03-31T00:36:38.425Z,93.01
2023-03-31T00:37:38.430Z,93.01
2023-03-31T00:38:38.392Z,93.12
2023-03-31T00:39:38.379Z,93.32
2023-03-31T00:40:38.439Z,93.43
2023-03-31T00:41:38.363Z,93.43
2023-03-31T00:42:38.358Z,93.52
2023-03-31T00:43:38.329Z,93.63
2023-03-31T00:44:38.307Z,93.73
2023-03-31T00:45:38.381Z,93.84
2023-03-31T00:46:38.284Z,94.04
2023-03-31T00:47:38.329Z,94.14
2023-03-31T00:48:38.271Z,94.14
2023-03-31T00:49:38.259Z,94.14
2023-03-31T00:50:38.232Z,94.14
2023-03-31T00:51:38.224Z,94.14
2023-03-31T00:52:38.237Z,94.14
2023-03-31T00:53:38.198Z,94.04
2023-03-31T00:54:38.186Z,94.04
2023-03-31T00:55:38.214Z,94.04
2023-03-31T00:56:38.157Z,94.14
2023-03-31T00:57:38.170Z,94.14
2023-03-31T00:58:38.144Z,94.24
2023-03-31T00:59:38.126Z,94.34
2023-03-31T01:00:38.093Z,94.45
2023-03-31T01:01:38.151Z,94.45
2023-03-31T01:02:38.196Z,94.59
2023-03-31T01:03:38.088Z,94.59
2023-03-31T01:04:38.045Z,94.49
2023-03-31T01:05:38.050Z,94.49
2023-03-31T01:06:38.035Z,94.49
2023-03-31T01:07:38.074Z,94.59
2023-03-31T01:08:38.002Z,94.70
2023-03-31T01:09:38.006Z,94.80
2023-03-31T01:10:38.124Z,94.90
2023-03-31T01:11:37.986Z,95.00
2023-03-31T01:12:37.946Z,95.10
2023-03-31T01:13:37.935Z,95.10
2023-03-31T01:14:37.929Z,95.00
2023-03-31T01:15:37.913Z,95.00
2023-03-31T01:16:38.045Z,95.00
2023-03-31T01:17:38.089Z,95.00
2023-03-31T01:18:37.890Z,94.90
2023-03-31T01:19:37.872Z,94.90
2023-03-31T01:20:37.835Z,94.75
2023-03-31T01:21:37.836Z,94.75
2023-03-31T01:22:37.817Z,94.75
2023-03-31T01:23:37.813Z,94.75
2023-03-31T01:24:37.802Z,94.75
2023-03-31T01:25:37.768Z,94.75
2023-03-31T01:26:37.761Z,94.65
2023-03-31T01:27:37.761Z,94.70
2023-03-31T01:28:37.717Z,94.75
2023-03-31T01:29:37.737Z,94.85
2023-03-31T01:30:37.707Z,94.75
2023-03-31T01:31:37.780Z,94.75
2023-03-31T01:32:37.736Z,94.65
2023-03-31T01:33:37.678Z,94.65
2023-03-31T01:34:37.674Z,94.55
2023-03-31T01:35:37.662Z,94.65
2023-03-31T01:36:37.628Z,94.75
2023-03-31T01:37:37.684Z,94.75
2023-03-31T01:38:37.609Z,94.75
2023-03-31T01:39:37.610Z,94.75
2023-03-31T01:40:37.585Z,94.55
2023-03-31T01:41:37.571Z,94.55
2023-03-31T01:42:37.547Z,94.45
2023-03-31T01:43:37.542Z,94.65
2023-03-31T01:44:37.536Z,94.65
2023-03-31T01:45:37.519Z,94.75
2023-03-31T01:46:37.530Z,94.75
2023-03-31T01:47:37.518Z,94.75
2023-03-31T01:48:37.475Z,94.75
2023-03-31T01:49:37.476Z,94.75
2023-03-31T01:50:37.436Z,94.75
2023-03-31T01:51:37.433Z,94.85
2023-03-31T01:52:37.414Z,94.85
2023-03-31T01:53:37.424Z,95.00
2023-03-31T01:54:37.408Z,95.00
2023-03-31T01:55:37.379Z,95.00
2023-03-31T01:56:37.377Z,95.00
2023-03-31T01:57:37.367Z,95.00
2023-03-31T01:58:37.326Z,95.10
2023-03-31T01:59:37.324Z,95.21
2023-03-31T02:00:37.327Z,95.17
2023-03-31T02:01:37.565Z,95.21
2023-03-31T02:02:37.377Z,95.21
2023-03-31T02:03:37.410Z,95.17
2023-03-31T02:04:37.287Z,95.06
2023-03-31T02:05:37.269Z,95.10
2023-03-31T02:06:37.219Z,95.00
2023-03-31T02:07:37.229Z,95.00
2023-03-31T02:08:37.197Z,95.00
2023-03-31T02:09:37.198Z,95.00
2023-03-31T02:10:37.195Z,95.00
2023-03-31T02:11:37.159Z,95.10
2023-03-31T02:12:37.155Z,95.10
2023-03-31T02:13:37.154Z,95.21
2023-03-31T02:14:37.126Z,95.21
2023-03-31T02:15:37.141Z,95.10
2023-03-31T02:16:37.143Z,95.10
2023-03-31T02:17:37.188Z,95.10
2023-03-31T02:18:37.080Z,95.00
2023-03-31T02:19:37.058Z,95.00
2023-03-31T02:20:37.085Z,95.00
2023-03-31T02:21:37.037Z,95.00
2023-03-31T02:22:37.019Z,95.10
2023-03-31T02:23:37.005Z,95.10
2023-03-31T02:24:36.989Z,94.80
2023-03-31T02:25:37.009Z,94.70
2023-03-31T02:26:36.968Z,94.80
2023-03-31T02:27:36.992Z,94.90
2023-03-31T02:28:36.965Z,94.80
2023-03-31T02:29:36.920Z,94.90
2023-03-31T02:30:36.928Z,94.90
2023-03-31T02:31:36.977Z,95.00
2023-03-31T02:32:36.900Z,95.10
2023-03-31T02:33:36.869Z,95.10
2023-03-31T02:34:36.860Z,95.10
2023-03-31T02:35:36.910Z,95.00
2023-03-31T02:36:36.899Z,95.00
2023-03-31T02:37:36.831Z,95.10
2023-03-31T02:38:36.801Z,95.10
2023-03-31T02:39:36.792Z,95.00
2023-03-31T02:40:36.786Z,94.90
2023-03-31T02:41:36.805Z,95.00
2023-03-31T02:42:43.974Z,95.00
2023-03-31T02:43:36.767Z,95.10
2023-03-31T02:44:36.733Z,95.10
2023-03-31T02:45:36.773Z,95.21
2023-03-31T02:46:36.688Z,95.31
2023-03-31T02:47:36.751Z,95.31
2023-03-31T02:48:36.668Z,95.21
2023-03-31T02:49:36.666Z,95.10
2023-03-31T02:50:36.662Z,95.00
2023-03-31T02:51:36.635Z,95.00
2023-03-31T02:52:36.635Z,95.00
2023-03-31T02:53:36.602Z,94.90
2023-03-31T02:54:36.580Z,95.00
2023-03-31T02:55:36.585Z,95.00
2023-03-31T02:56:36.577Z,95.00
2023-03-31T02:57:36.557Z,95.00
2023-03-31T02:58:36.530Z,94.90
2023-03-31T02:59:36.522Z,94.90
2023-03-31T03:00:36.501Z,95.00
2023-03-31T03:01:36.553Z,95.00
2023-03-31T03:02:36.526Z,95.00
2023-03-31T03:03:36.536Z,94.90
2023-03-31T03:04:36.452Z,94.90
2023-03-31T03:05:36.452Z,94.90
2023-03-31T03:06:36.442Z,94.90
2023-03-31T03:07:36.430Z,95.00
2023-03-31T03:08:36.393Z,95.00
2023-03-31T03:09:36.396Z,94.90
2023-03-31T03:10:36.406Z,95.00
2023-03-31T03:11:36.388Z,95.00
2023-03-31T03:12:36.344Z,95.10
2023-03-31T03:13:36.342Z,95.10
2023-03-31T03:14:36.329Z,95.21
2023-03-31T03:15:36.315Z,95.21
2023-03-31T03:16:36.357Z,95.21
2023-03-31T03:17:36.343Z,95.21
2023-03-31T03:18:36.272Z,95.21
2023-03-31T03:19:36.260Z,95.10
2023-03-31T03:20:36.243Z,95.00
2023-03-31T03:21:36.244Z,95.00
2023-03-31T03:22:36.221Z,94.90
2023-03-31T03:23:36.211Z,94.80
2023-03-31T03:24:36.186Z,94.70
2023-03-31T03:25:36.177Z,94.80
2023-03-31T03:26:36.167Z,94.80
2023-03-31T03:27:36.179Z,94.80
2023-03-31T03:28:36.131Z,94.90
2023-03-31T03:29:36.115Z,95.00
2023-03-31T03:30:36.106Z,95.10
2023-03-31T03:31:36.126Z,95.10
2023-03-31T03:32:36.112Z,95.10
2023-03-31T03:33:36.068Z,95.21
2023-03-31T03:34:36.060Z,95.31
2023-03-31T03:35:36.056Z,95.31
2023-03-31T03:36:36.023Z,95.41
2023-03-31T03:37:36.038Z,95.51
2023-03-31T03:38:35.991Z,95.62
2023-03-31T03:39:35.986Z,95.76
2023-03-31T03:40:35.970Z,95.76
2023-03-31T03:41:35.974Z,95.87
2023-03-31T03:42:35.973Z,95.97
2023-03-31T03:43:35.936Z,96.07
2023-03-31T03:44:35.921Z,96.17
2023-03-31T03:45:35.907Z,96.17
2023-03-31T03:46:35.937Z,96.17
2023-03-31T03:47:36.010Z,96.17
2023-03-31T03:48:35.890Z,96.17
2023-03-31T03:49:35.923Z,96.17
2023-03-31T03:50:35.849Z,96.17
2023-03-31T03:51:35.838Z,96.17
2023-03-31T03:52:35.839Z,96.28
2023-03-31T03:53:35.800Z,96.28
2023-03-31T03:54:35.792Z,96.28
2023-03-31T03:55:36.016Z,96.38
2023-03-31T03:56:35.771Z,96.38
2023-03-31T03:57:35.758Z,96.38
2023-03-31T03:58:35.735Z,96.58
2023-03-31T03:59:35.724Z,96.69
2023-03-31T04:00:35.716Z,96.79
2023-03-31T04:01:35.735Z,96.79
2023-03-31T04:02:35.760Z,96.79
2023-03-31T04:03:35.686Z,96.69
2023-03-31T04:04:35.679Z,96.69
2023-03-31T04:05:35.639Z,96.69
2023-03-31T04:06:35.631Z,96.58
2023-03-31T04:07:35.628Z,96.48
2023-03-31T04:08:35.601Z,96.48
2023-03-31T04:09:35.581Z,96.48
2023-03-31T04:10:35.570Z,96.38
2023-03-31T04:11:35.570Z,96.28
2023-03-31T04:12:35.554Z,96.28
2023-03-31T04:13:35.524Z,96.28
2023-03-31T04:14:35.520Z,96.17
2023-03-31T04:15:35.508Z,96.17
2023-03-31T04:16:35.541Z,96.17
2023-03-31T04:17:35.537Z,96.17
2023-03-31T04:18:35.471Z,96.17
2023-03-31T04:19:35.444Z,96.07
2023-03-31T04:20:35.432Z,96.17
2023-03-31T04:21:35.689Z,96.17
2023-03-31T04:22:35.469Z,96.17
2023-03-31T04:23:35.418Z,96.17
2023-03-31T04:24:35.401Z,96.07
2023-03-31T04:25:35.362Z,96.17
2023-03-31T04:26:35.367Z,96.17
2023-03-31T04:27:35.337Z,96.17
2023-03-31T04:28:35.346Z,96.17
2023-03-31T04:29:35.312Z,96.17
2023-03-31T04:30:35.306Z,96.28
2023-03-31T04:31:36.423Z,96.28
2023-03-31T04:32:35.331Z,96.38
2023-03-31T04:33:35.447Z,96.48
2023-03-31T04:34:35.722Z,96.48
2023-03-31T04:35:35.242Z,96.48
2023-03-31T04:36:35.219Z,96.48
2023-03-31T04:37:35.215Z,96.48
2023-03-31T04:38:35.212Z,96.58
2023-03-31T04:39:35.179Z,96.58
2023-03-31T04:40:35.173Z,96.58
2023-03-31T04:41:35.220Z,96.58
2023-03-31T04:42:35.216Z,96.69
2023-03-31T04:43:35.173Z,96.69
2023-03-31T04:44:35.119Z,96.69
2023-03-31T04:45:35.126Z,96.79
2023-03-31T04:46:35.096Z,96.79
2023-03-31T04:47:35.086Z,96.83
2023-03-31T04:48:35.081Z,96.83
2023-03-31T04:49:35.070Z,96.83
2023-03-31T04:50:35.036Z,96.83
2023-03-31T04:51:35.019Z,96.83
2023-03-31T04:52:35.001Z,96.83
2023-03-31T04:53:35.088Z,96.79
2023-03-31T04:54:34.970Z,96.79
2023-03-31T04:55:34.969Z,96.83
2023-03-31T04:56:34.950Z,96.89
2023-03-31T04:57:34.975Z,96.99
2023-03-31T04:58:34.944Z,97.09
2023-03-31T04:59:34.913Z,97.14
2023-03-31T05:00:34.927Z,97.09
2023-03-31T05:01:34.913Z,97.04
2023-03-31T05:02:34.926Z,97.04
2023-03-31T05:03:35.008Z,97.14
2023-03-31T05:04:34.853Z,97.20
2023-03-31T05:05:34.855Z,97.20
2023-03-31T05:06:34.896Z,97.40
2023-03-31T05:07:34.818Z,97.50
2023-03-31T05:08:34.829Z,97.20
2023-03-31T05:09:35.148Z,96.99
2023-03-31T05:10:34.763Z,96.89
2023-03-31T05:11:34.767Z,96.79
2023-03-31T05:12:34.751Z,96.79
2023-03-31T05:13:34.750Z,96.79
2023-03-31T05:14:34.724Z,96.69
2023-03-31T05:15:35.145Z,96.79
2023-03-31T05:16:34.741Z,96.83
2023-03-31T05:17:34.748Z,96.83
2023-03-31T05:18:34.682Z,96.94
2023-03-31T05:19:34.673Z,96.94
2023-03-31T05:20:34.649Z,96.99
2023-03-31T05:21:34.622Z,97.04
2023-03-31T05:22:34.611Z,97.04
2023-03-31T05:23:34.618Z,97.04
2023-03-31T05:24:34.628Z,97.04
2023-03-31T05:25:34.578Z,97.04
2023-03-31T05:26:34.565Z,97.04
2023-03-31T05:27:34.653Z,97.14
2023-03-31T05:28:34.556Z,97.24
2023-03-31T05:29:34.513Z,97.24
2023-03-31T05:30:34.518Z,97.24
2023-03-31T05:31:34.542Z,97.34
2023-03-31T05:32:34.527Z,97.34
2023-03-31T05:33:34.885Z,97.45
2023-03-31T05:34:34.459Z,97.55
2023-03-31T05:35:34.492Z,97.55
2023-03-31T05:36:34.474Z,97.40
2023-03-31T05:37:34.424Z,97.30
2023-03-31T05:38:34.437Z,97.20
2023-03-31T05:39:34.380Z,97.09
2023-03-31T05:40:34.375Z,96.89
2023-03-31T05:41:34.342Z,96.69
2023-03-31T05:42:34.344Z,96.58
2023-03-31T05:43:34.381Z,96.58
2023-03-31T05:44:34.310Z,96.48
2023-03-31T05:45:34.302Z,96.48
2023-03-31T05:46:34.389Z,96.38
2023-03-31T05:47:34.296Z,96.28
2023-03-31T05:48:34.313Z,96.28
2023-03-31T05:49:34.267Z,96.17
2023-03-31T05:50:34.247Z,96.17
2023-03-31T05:51:34.220Z,96.07
2023-03-31T05:52:34.222Z,96.07
2023-03-31T05:53:34.283Z,95.97
2023-03-31T05:54:34.214Z,95.87
2023-03-31T05:55:34.184Z,95.87
2023-03-31T05:56:34.163Z,95.66
2023-03-31T05:57:34.157Z,95.66
2023-03-31T05:58:34.154Z,95.66
2023-03-31T05:59:34.152Z,95.56
2023-03-31T06:00:34.134Z,95.56
2023-03-31T06:01:34.328Z,95.46
2023-03-31T06:02:34.243Z,95.56
2023-03-31T06:03:34.129Z,95.46
2023-03-31T06:04:34.110Z,95.46
2023-03-31T06:05:34.029Z,95.56
2023-03-31T06:06:37.140Z,95.66
2023-03-31T06:07:34.026Z,95.66
2023-03-31T06:08:34.010Z,95.66
2023-03-31T06:09:34.007Z,95.76
2023-03-31T06:10:33.977Z,96.01
2023-03-31T06:11:33.960Z,96.12
2023-03-31T06:12:34.041Z,96.32
2023-03-31T06:13:33.962Z,96.42
2023-03-31T06:14:33.929Z,96.63
2023-03-31T06:15:33.901Z,96.73
2023-03-31T06:16:33.935Z,96.73
2023-03-31T06:17:34.285Z,96.83
2023-03-31T06:18:33.850Z,96.94
2023-03-31T06:19:33.860Z,96.94
2023-03-31T06:20:33.833Z,97.04
2023-03-31T06:21:33.836Z,97.04
2023-03-31T06:22:33.827Z,96.94
2023-03-31T06:23:33.801Z,96.94
2023-03-31T06:24:33.817Z,96.94
2023-03-31T06:25:47.792Z,96.83
2023-03-31T06:26:34.750Z,96.58
2023-03-31T06:27:33.744Z,96.38
2023-03-31T06:28:33.988Z,96.17
2023-03-31T06:29:34.014Z,96.07
2023-03-31T06:30:33.704Z,95.97
2023-03-31T06:31:33.736Z,95.97
2023-03-31T06:32:33.694Z,96.07
2023-03-31T06:33:33.650Z,96.17
2023-03-31T06:34:33.665Z,96.17
2023-03-31T06:35:33.635Z,96.17
2023-03-31T06:36:33.633Z,96.17
2023-03-31T06:37:33.616Z,96.17
2023-03-31T06:38:33.598Z,96.07
2023-03-31T06:39:33.592Z,96.07
2023-03-31T06:40:33.575Z,95.97
2023-03-31T06:41:33.559Z,96.07
2023-03-31T06:42:33.540Z,96.07
2023-03-31T06:43:33.528Z,96.17
2023-03-31T06:44:33.527Z,96.17
2023-03-31T06:45:33.488Z,96.17
2023-03-31T06:46:33.497Z,96.28
2023-03-31T06:47:33.510Z,96.28
2023-03-31T06:48:33.452Z,96.32
2023-03-31T06:49:33.464Z,96.32
2023-03-31T06:50:33.429Z,96.42
2023-03-31T06:51:33.408Z,96.42
2023-03-31T06:52:33.400Z,96.53
2023-03-31T06:53:33.379Z,96.53
2023-03-31T06:54:33.392Z,96.63
2023-03-31T06:55:33.573Z,96.73
2023-03-31T06:56:33.355Z,96.83
2023-03-31T06:57:33.387Z,96.73
2023-03-31T06:58:33.304Z,96.73
2023-03-31T06:59:33.291Z,96.53
2023-03-31T07:00:33.302Z,96.63
2023-03-31T07:01:33.278Z,96.73
2023-03-31T07:02:33.337Z,96.73
2023-03-31T07:03:33.267Z,96.83
2023-03-31T07:04:33.247Z,96.94
2023-03-31T07:05:33.218Z,97.04
2023-03-31T07:06:33.205Z,97.14
2023-03-31T07:07:33.180Z,97.34
2023-03-31T07:08:33.179Z,97.40
2023-03-31T07:09:33.358Z,97.40
2023-03-31T07:10:33.142Z,97.40
2023-03-31T07:11:33.134Z,97.30
2023-03-31T07:12:33.111Z,97.20
2023-03-31T07:13:33.095Z,97.09
2023-03-31T07:14:33.108Z,97.20
2023-03-31T07:15:33.067Z,97.20
2023-03-31T07:16:33.168Z,97.20
2023-03-31T07:17:33.117Z,97.20
2023-03-31T07:18:35.117Z,97.09
2023-03-31T07:19:33.042Z,96.95
2023-03-31T07:20:33.025Z,97.05
2023-03-31T07:21:33.009Z,96.95
2023-03-31T07:22:32.994Z,96.95
2023-03-31T07:23:32.974Z,96.95
2023-03-31T07:24:32.989Z,96.84
2023-03-31T07:25:32.944Z,96.74
2023-03-31T07:26:32.950Z,96.64
2023-03-31T07:27:32.933Z,96.54
2023-03-31T07:28:32.924Z,96.44
2023-03-31T07:29:32.910Z,96.23
2023-03-31T07:30:32.905Z,96.13
2023-03-31T07:31:32.931Z,95.92
2023-03-31T07:32:32.870Z,95.72
2023-03-31T07:33:32.834Z,95.62
2023-03-31T07:34:34.466Z,95.51
2023-03-31T07:35:32.868Z,95.47
2023-03-31T07:36:32.830Z,95.47
2023-03-31T07:37:32.787Z,95.37
2023-03-31T07:38:32.781Z,95.26
2023-03-31T07:39:32.774Z,95.26
2023-03-31T07:40:32.750Z,95.37
2023-03-31T07:41:32.734Z,95.37
2023-03-31T07:42:32.725Z,95.26
2023-03-31T07:43:32.704Z,94.85
2023-03-31T07:44:32.724Z,94.45
2023-03-31T07:45:32.693Z,94.55
2023-03-31T07:46:32.762Z,94.65
2023-03-31T07:47:32.666Z,94.85
2023-03-31T07:48:32.654Z,94.96
2023-03-31T07:49:32.645Z,94.96
2023-03-31T07:50:32.624Z,95.02
2023-03-31T07:51:32.594Z,95.02
2023-03-31T07:52:32.600Z,95.02
2023-03-31T07:53:32.574Z,94.81
2023-03-31T07:54:32.593Z,94.71
2023-03-31T07:55:32.556Z,94.71
2023-03-31T07:56:32.530Z,94.71
2023-03-31T07:57:32.614Z,94.60
2023-03-31T07:58:32.528Z,94.51
2023-03-31T07:59:32.500Z,94.51
2023-03-31T08:00:32.542Z,94.30
2023-03-31T08:01:32.518Z,94.20
2023-03-31T08:02:32.574Z,94.20
2023-03-31T08:03:32.507Z,93.99
2023-03-31T08:04:32.570Z,93.85
2023-03-31T08:05:32.441Z,93.85
2023-03-31T08:06:32.410Z,93.65
2023-03-31T08:07:32.393Z,93.44
2023-03-31T08:08:32.388Z,93.24
2023-03-31T08:09:32.369Z,93.03
2023-03-31T08:10:32.375Z,92.93
2023-03-31T08:11:32.349Z,92.93
2023-03-31T08:12:32.337Z,92.88
2023-03-31T08:13:32.320Z,92.78
2023-03-31T08:14:40.737Z,92.88
2023-03-31T08:15:33.315Z,92.88
2023-03-31T08:16:32.328Z,92.68
2023-03-31T08:17:32.316Z,92.07
2023-03-31T08:18:32.288Z,91.86
2023-03-31T08:19:32.273Z,92.07
2023-03-31T08:20:32.251Z,92.17
2023-03-31T08:21:32.221Z,92.27
2023-03-31T08:22:32.193Z,92.47
2023-03-31T08:23:32.193Z,92.68
2023-03-31T08:24:32.164Z,92.88
2023-03-31T08:25:32.182Z,92.88
2023-03-31T08:26:32.159Z,92.88
2023-03-31T08:27:32.132Z,92.99
2023-03-31T08:28:32.115Z,93.09
2023-03-31T08:29:32.100Z,93.09
2023-03-31T08:30:32.105Z,93.09
2023-03-31T08:31:32.099Z,93.09
2023-03-31T08:32:32.080Z,92.88
2023-03-31T08:33:32.048Z,92.58
2023-03-31T08:34:32.045Z,92.37
2023-03-31T08:35:32.048Z,92.27
2023-03-31T08:36:32.021Z,92.07
2023-03-31T08:37:31.996Z,91.96
2023-03-31T08:38:31.980Z,91.72
2023-03-31T08:39:31.970Z,91.52
2023-03-31T08:40:31.974Z,91.31
2023-03-31T08:41:31.966Z,91.20
2023-03-31T08:42:39.002Z,91.61
2023-03-31T08:43:31.926Z,91.78
2023-03-31T08:44:31.914Z,91.57
2023-03-31T08:45:31.949Z,91.47
2023-03-31T08:46:31.974Z,91.37
2023-03-31T08:47:31.880Z,91.67
2023-03-31T08:48:31.848Z,91.78
2023-03-31T08:49:31.843Z,91.78
2023-03-31T08:50:31.845Z,91.78
2023-03-31T08:51:31.824Z,91.57
2023-03-31T08:52:31.805Z,91.53
2023-03-31T08:53:31.789Z,91.33
2023-03-31T08:54:31.771Z,90.92
2023-03-31T08:55:31.785Z,90.51
2023-03-31T08:56:31.805Z,90.10
2023-03-31T08:57:31.831Z,89.90
2023-03-31T08:58:31.722Z,89.79
2023-03-31T08:59:31.757Z,90.04
2023-03-31T09:00:31.782Z,90.14
2023-03-31T09:01:34.051Z,90.25
2023-03-31T09:02:32.873Z,90.35
2023-03-31T09:03:31.785Z,90.45
2023-03-31T09:04:31.637Z,90.55
2023-03-31T09:05:31.644Z,90.66
2023-03-31T09:06:31.600Z,90.55
2023-03-31T09:07:31.610Z,90.45
2023-03-31T09:08:31.604Z,90.35
2023-03-31T09:09:31.587Z,90.25
2023-03-31T09:10:31.561Z,90.25
2023-03-31T09:11:31.573Z,90.55
2023-03-31T09:12:31.534Z,90.66
2023-03-31T09:13:31.527Z,90.66
2023-03-31T09:14:31.509Z,90.66
2023-03-31T09:15:31.503Z,90.55
2023-03-31T09:16:31.539Z,90.45
2023-03-31T09:17:31.533Z,90.96
2023-03-31T09:18:31.468Z,91.37
2023-03-31T09:19:31.499Z,91.57
2023-03-31T09:20:31.461Z,91.47
2023-03-31T09:21:31.448Z,91.27
2023-03-31T09:22:31.400Z,91.16
2023-03-31T09:23:31.406Z,91.16
2023-03-31T09:24:32.778Z,91.37
2023-03-31T09:25:31.381Z,91.47
2023-03-31T09:26:31.371Z,91.67
2023-03-31T09:27:31.416Z,91.57
2023-03-31T09:28:31.321Z,91.57
2023-03-31T09:29:31.311Z,91.67
2023-03-31T09:30:31.322Z,91.67
2023-03-31T09:31:31.431Z,91.67
2023-03-31T09:32:31.320Z,91.67
2023-03-31T09:33:31.264Z,91.67
2023-03-31T09:34:31.254Z,91.67
2023-03-31T09:35:31.264Z,91.78
2023-03-31T09:36:31.308Z,91.78
2023-03-31T09:37:31.214Z,91.78
2023-03-31T09:38:31.261Z,91.78
2023-03-31T09:39:31.185Z,91.78
2023-03-31T09:40:31.174Z,91.67
2023-03-31T09:41:33.027Z,91.27
2023-03-31T09:42:31.141Z,90.86
2023-03-31T09:43:31.132Z,90.75
2023-03-31T09:44:31.123Z,90.86
2023-03-31T09:45:31.103Z,91.16
2023-03-31T09:46:31.155Z,91.47
2023-03-31T09:47:31.115Z,91.78
2023-03-31T09:48:31.062Z,91.98
2023-03-31T09:49:31.060Z,92.39
2023-03-31T09:50:31.041Z,92.49
2023-03-31T09:51:31.065Z,92.59
2023-03-31T09:52:31.013Z,92.80
2023-03-31T09:53:31.004Z,92.69
2023-03-31T09:54:31.005Z,92.59
2023-03-31T09:55:39.637Z,92.29
2023-03-31T09:56:31.962Z,92.19
2023-03-31T09:57:33.488Z,92.08
2023-03-31T09:58:30.933Z,91.98
2023-03-31T09:59:30.924Z,91.98
2023-03-31T10:00:30.909Z,91.27
2023-03-31T10:01:30.955Z,90.19
2023-03-31T10:02:30.910Z,89.58
2023-03-31T10:03:30.898Z,89.47
2023-03-31T10:04:30.885Z,87.84
2023-03-31T10:05:30.848Z,86.51
2023-03-31T10:06:30.836Z,86.00
2023-03-31T10:07:30.839Z,86.04
2023-03-31T10:08:30.801Z,85.73
2023-03-31T10:09:30.805Z,85.83
2023-03-31T10:10:30.778Z,84.71
2023-03-31T10:11:30.767Z,85.12
2023-03-31T10:12:30.774Z,85.12
2023-03-31T10:13:30.746Z,85.22
2023-03-31T10:14:30.719Z,85.53
2023-03-31T10:15:30.748Z,86.04
2023-03-31T10:16:30.867Z,85.73
2023-03-31T10:17:33.998Z,86.04
2023-03-31T10:18:31.721Z,85.94
2023-03-31T10:19:30.668Z,85.83
2023-03-31T10:20:30.647Z,86.30
2023-03-31T10:21:30.635Z,86.91
2023-03-31T10:22:30.640Z,86.61
2023-03-31T10:23:30.647Z,85.69
2023-03-31T10:24:30.597Z,85.38
2023-03-31T10:25:30.585Z,85.49
2023-03-31T10:26:30.565Z,84.88
2023-03-31T10:27:30.579Z,85.18
2023-03-31T10:28:30.593Z,86.00
2023-03-31T10:29:30.542Z,86.41
2023-03-31T10:30:30.524Z,86.71
2023-03-31T10:31:30.522Z,86.30
2023-03-31T10:32:30.566Z,85.38
2023-03-31T10:33:30.490Z,85.79
2023-03-31T10:34:30.461Z,86.00
2023-03-31T10:35:30.451Z,85.79
2023-03-31T10:36:30.593Z,86.65
2023-03-31T10:37:30.438Z,86.76
2023-03-31T10:38:30.415Z,86.85
2023-03-31T10:39:30.406Z,87.98
2023-03-31T10:40:30.397Z,88.08
2023-03-31T10:41:30.375Z,88.70
2023-03-31T10:42:30.392Z,89.20
2023-03-31T10:43:30.410Z,89.04
2023-03-31T10:44:30.326Z,88.12
2023-03-31T10:45:37.443Z,87.85
2023-03-31T10:46:31.374Z,87.35
2023-03-31T10:47:30.336Z,87.14
2023-03-31T10:48:30.323Z,86.22
2023-03-31T10:49:30.256Z,86.12
2023-03-31T10:50:30.254Z,85.81
2023-03-31T10:51:30.239Z,85.20
2023-03-31T10:52:30.262Z,85.61
2023-03-31T10:53:30.214Z,84.69
2023-03-31T10:54:30.186Z,83.15
2023-03-31T10:55:30.175Z,84.69
2023-03-31T10:56:30.179Z,84.69
2023-03-31T10:57:30.234Z,85.88
2023-03-31T10:58:30.164Z,85.88
2023-03-31T10:59:30.185Z,85.16
2023-03-31T11:00:30.119Z,84.61
2023-03-31T11:01:30.187Z,85.83
2023-03-31T11:02:30.173Z,86.24
2023-03-31T11:03:30.144Z,87.32
2023-03-31T11:04:30.055Z,85.28
2023-03-31T11:05:30.056Z,86.20
2023-03-31T11:06:30.034Z,86.30
2023-03-31T11:07:30.084Z,87.43
2023-03-31T11:08:30.013Z,87.84
2023-03-31T11:09:30.008Z,88.35
2023-03-31T11:10:29.986Z,86.91
2023-03-31T11:11:29.971Z,84.67
2023-03-31T11:12:29.985Z,85.38
2023-03-31T11:13:29.958Z,86.51
2023-03-31T11:14:30.992Z,87.23
2023-03-31T11:15:29.936Z,86.51
2023-03-31T11:16:29.961Z,86.30
2023-03-31T11:17:29.922Z,86.82
2023-03-31T11:18:29.896Z,87.12
2023-03-31T11:19:29.852Z,87.43
2023-03-31T11:20:31.039Z,88.04
2023-03-31T11:21:29.841Z,88.24
2023-03-31T11:22:29.835Z,88.45
2023-03-31T11:23:29.839Z,89.37
2023-03-31T11:24:29.788Z,90.19
2023-03-31T11:25:29.793Z,90.39
2023-03-31T11:26:30.922Z,89.98
2023-03-31T11:27:29.759Z,89.88
2023-03-31T11:28:29.763Z,90.29
2023-03-31T11:29:29.744Z,90.39
2023-03-31T11:30:29.716Z,90.25
2023-03-31T11:31:29.729Z,90.14
2023-03-31T11:32:31.454Z,88.10
2023-03-31T11:33:29.710Z,88.10
2023-03-31T11:34:29.714Z,87.29
2023-03-31T11:35:29.675Z,87.59
2023-03-31T11:36:29.648Z,87.12
2023-03-31T11:37:29.628Z,87.38
2023-03-31T11:38:29.642Z,87.02
2023-03-31T11:39:29.611Z,87.02
2023-03-31T11:40:29.585Z,86.71
2023-03-31T11:41:29.586Z,85.18
2023-03-31T11:42:29.558Z,85.28
2023-03-31T11:43:29.570Z,85.28
2023-03-31T11:44:29.544Z,84.36
2023-03-31T11:45:29.536Z,84.16
2023-03-31T11:46:29.618Z,84.06
2023-03-31T11:47:29.529Z,85.28
2023-03-31T11:48:29.509Z,85.69
2023-03-31T11:49:29.524Z,85.89
2023-03-31T11:50:29.472Z,84.88
2023-03-31T11:51:29.456Z,84.16
2023-03-31T11:52:29.432Z,83.61
2023-03-31T11:53:29.419Z,82.69
2023-03-31T11:54:29.429Z,81.87
2023-03-31T11:55:29.415Z,81.67
2023-03-31T11:56:29.388Z,81.46
2023-03-31T11:57:29.450Z,81.26
2023-03-31T11:58:29.360Z,81.16
2023-03-31T11:59:29.362Z,82.35
2023-03-31T12:00:29.326Z,82.35
2023-03-31T12:01:29.319Z,80.91
2023-03-31T12:02:29.330Z,80.82
2023-03-31T12:03:29.433Z,80.51
2023-03-31T12:04:29.298Z,81.29
2023-03-31T12:05:29.285Z,81.18
2023-03-31T12:06:29.464Z,80.23
2023-03-31T12:07:29.254Z,80.33
2023-03-31T12:08:29.226Z,80.19
2023-03-31T12:09:29.220Z,79.68
2023-03-31T12:10:29.183Z,80.60
2023-03-31T12:11:29.214Z,79.38
2023-03-31T12:12:29.165Z,79.17
2023-03-31T12:13:29.159Z,79.58
2023-03-31T12:14:29.184Z,78.97
2023-03-31T12:15:29.131Z,77.03
2023-03-31T12:16:29.148Z,77.98
2023-03-31T12:17:29.932Z,79.62
2023-03-31T12:18:29.089Z,80.02
2023-03-31T12:19:29.086Z,80.54
2023-03-31T12:20:29.070Z,81.25
2023-03-31T12:21:29.058Z,81.21
2023-03-31T12:22:29.039Z,81.31
2023-03-31T12:23:29.024Z,81.93
2023-03-31T12:24:29.042Z,82.23
2023-03-31T12:25:29.002Z,81.72
2023-03-31T12:26:28.981Z,82.03
2023-03-31T12:27:28.990Z,82.03
2023-03-31T12:28:28.958Z,81.58
2023-03-31T12:29:28.973Z,81.52
2023-03-31T12:30:28.930Z,80.40
2023-03-31T12:31:28.932Z,79.99
2023-03-31T12:32:28.963Z,81.93
2023-03-31T12:33:28.923Z,82.13
2023-03-31T12:34:28.897Z,80.60
2023-03-31T12:35:28.892Z,79.99
2023-03-31T12:36:28.888Z,80.09
2023-03-31T12:37:28.843Z,79.82
2023-03-31T12:38:28.838Z,80.64
2023-03-31T12:39:28.818Z,79.62
2023-03-31T12:40:28.821Z,79.62
2023-03-31T12:41:28.793Z,79.62
2023-03-31T12:42:28.785Z,82.33
2023-03-31T12:43:28.767Z,82.64
2023-03-31T12:44:28.766Z,82.23
2023-03-31T12:45:28.841Z,80.80
2023-03-31T12:46:28.749Z,80.16
2023-03-31T12:47:28.723Z,79.75
2023-03-31T12:48:28.698Z,79.24
2023-03-31T12:49:28.684Z,79.24
2023-03-31T12:50:28.726Z,79.03
2023-03-31T12:51:28.661Z,80.36
2023-03-31T12:52:28.671Z,79.61